sensor_id;sensor_type;location;lat;lon;timestamp;P1;durP1;ratioP1;P2;durP2;ratioP2
72949;SDS011;64868;45.710;9.590;2022-11-27T00:01:16;5.32;;;1.85;;
72949;SDS011;64868;45.710;9.590;2022-11-27T00:03:43;6.05;;;2.28;;
72949;SDS011;64868;45.710;9.590;2022-11-27T00:06:12;6.03;;;2.35;;
72949;SDS011;64868;45.710;9.590;2022-11-27T00:08:40;5.45;;;2.30;;
72949;SDS011;64868;45.710;9.590;2022-11-27T00:11:07;6.10;;;2.20;;
72949;SDS011;64868;45.710;9.590;2022-11-27T00:13:35;5.53;;;2.30;;
72949;SDS011;64868;45.710;9.590;2022-11-27T00:16:00;8.60;;;2.42;;
72949;SDS011;64868;45.710;9.590;2022-11-27T00:18:26;4.97;;;2.10;;
72949;SDS011;64868;45.710;9.590;2022-11-27T00:20:51;5.50;;;2.45;;
72949;SDS011;64868;45.710;9.590;2022-11-27T00:23:16;6.10;;;2.13;;
72949;SDS011;64868;45.710;9.590;2022-11-27T00:25:48;5.88;;;2.38;;
72949;SDS011;64868;45.710;9.590;2022-11-27T00:28:17;5.45;;;2.00;;
72949;SDS011;64868;45.710;9.590;2022-11-27T00:30:43;6.72;;;2.50;;
72949;SDS011;64868;45.710;9.590;2022-11-27T00:33:08;4.85;;;2.00;;
72949;SDS011;64868;45.710;9.590;2022-11-27T00:35:34;5.07;;;2.13;;
72949;SDS011;64868;45.710;9.590;2022-11-27T00:37:59;5.43;;;2.22;;
72949;SDS011;64868;45.710;9.590;2022-11-27T00:40:25;5.85;;;2.17;;
72949;SDS011;64868;45.710;9.590;2022-11-27T00:42:50;5.68;;;2.28;;
72949;SDS011;64868;45.710;9.590;2022-11-27T00:45:15;5.72;;;2.30;;
72949;SDS011;64868;45.710;9.590;2022-11-27T00:47:41;6.07;;;2.45;;
72949;SDS011;64868;45.710;9.590;2022-11-27T00:50:06;5.22;;;2.20;;
72949;SDS011;64868;45.710;9.590;2022-11-27T00:52:32;5.03;;;2.00;;
72949;SDS011;64868;45.710;9.590;2022-11-27T00:54:57;5.07;;;2.03;;
72949;SDS011;64868;45.710;9.590;2022-11-27T00:57:23;5.72;;;2.10;;
72949;SDS011;64868;45.710;9.590;2022-11-27T00:59:49;6.00;;;2.25;;
72949;SDS011;64868;45.710;9.590;2022-11-27T01:02:15;5.07;;;2.15;;
72949;SDS011;64868;45.710;9.590;2022-11-27T01:04:40;5.88;;;2.40;;
72949;SDS011;64868;45.710;9.590;2022-11-27T01:07:08;5.80;;;2.28;;
72949;SDS011;64868;45.710;9.590;2022-11-27T01:09:34;4.93;;;2.15;;
72949;SDS011;64868;45.710;9.590;2022-11-27T01:11:59;5.07;;;2.10;;
72949;SDS011;64868;45.710;9.590;2022-11-27T01:14:24;5.45;;;2.17;;
72949;SDS011;64868;45.710;9.590;2022-11-27T01:16:50;4.85;;;2.15;;
72949;SDS011;64868;45.710;9.590;2022-11-27T01:19:15;4.88;;;2.10;;
72949;SDS011;64868;45.710;9.590;2022-11-27T01:21:40;5.05;;;2.10;;
72949;SDS011;64868;45.710;9.590;2022-11-27T01:24:06;5.63;;;2.20;;
72949;SDS011;64868;45.710;9.590;2022-11-27T01:26:32;5.60;;;2.10;;
72949;SDS011;64868;45.710;9.590;2022-11-27T01:28:57;4.78;;;1.65;;
72949;SDS011;64868;45.710;9.590;2022-11-27T01:31:24;5.35;;;2.20;;
72949;SDS011;64868;45.710;9.590;2022-11-27T01:33:53;5.68;;;2.20;;
72949;SDS011;64868;45.710;9.590;2022-11-27T01:36:25;4.70;;;2.10;;
72949;SDS011;64868;45.710;9.590;2022-11-27T01:38:51;6.10;;;2.10;;
72949;SDS011;64868;45.710;9.590;2022-11-27T01:41:20;5.15;;;2.05;;
72949;SDS011;64868;45.710;9.590;2022-11-27T01:48:51;5.30;;;2.08;;
72949;SDS011;64868;45.710;9.590;2022-11-27T01:51:19;5.55;;;1.90;;
72949;SDS011;64868;45.710;9.590;2022-11-27T01:53:46;5.30;;;2.10;;
72949;SDS011;64868;45.710;9.590;2022-11-27T01:56:11;4.80;;;1.80;;
72949;SDS011;64868;45.710;9.590;2022-11-27T01:58:37;5.43;;;2.15;;
72949;SDS011;64868;45.710;9.590;2022-11-27T02:01:03;5.32;;;2.10;;
72949;SDS011;64868;45.710;9.590;2022-11-27T02:03:29;5.00;;;1.83;;
72949;SDS011;64868;45.710;9.590;2022-11-27T02:05:55;5.57;;;2.17;;
72949;SDS011;64868;45.710;9.590;2022-11-27T02:08:21;4.80;;;1.90;;
72949;SDS011;64868;45.710;9.590;2022-11-27T02:10:48;4.63;;;1.80;;
72949;SDS011;64868;45.710;9.590;2022-11-27T02:13:30;4.55;;;1.50;;
72949;SDS011;64868;45.710;9.590;2022-11-27T02:16:17;4.78;;;1.90;;
72949;SDS011;64868;45.710;9.590;2022-11-27T02:18:51;5.40;;;2.20;;
72949;SDS011;64868;45.710;9.590;2022-11-27T02:21:25;4.28;;;1.65;;
72949;SDS011;64868;45.710;9.590;2022-11-27T02:29:22;5.30;;;1.95;;
72949;SDS011;64868;45.710;9.590;2022-11-27T02:32:03;4.60;;;1.95;;
72949;SDS011;64868;45.710;9.590;2022-11-27T02:34:42;4.90;;;1.83;;
72949;SDS011;64868;45.710;9.590;2022-11-27T02:40:00;4.75;;;1.77;;
72949;SDS011;64868;45.710;9.590;2022-11-27T02:42:32;6.43;;;2.28;;
72949;SDS011;64868;45.710;9.590;2022-11-27T02:45:03;5.43;;;1.98;;
72949;SDS011;64868;45.710;9.590;2022-11-27T02:47:33;4.63;;;1.52;;
72949;SDS011;64868;45.710;9.590;2022-11-27T02:49:59;4.40;;;1.70;;
72949;SDS011;64868;45.710;9.590;2022-11-27T02:52:26;5.35;;;1.63;;
72949;SDS011;64868;45.710;9.590;2022-11-27T02:54:55;4.78;;;1.70;;
72949;SDS011;64868;45.710;9.590;2022-11-27T02:57:24;4.78;;;1.80;;
72949;SDS011;64868;45.710;9.590;2022-11-27T02:59:52;5.35;;;1.80;;
72949;SDS011;64868;45.710;9.590;2022-11-27T03:02:22;5.03;;;1.70;;
72949;SDS011;64868;45.710;9.590;2022-11-27T03:04:54;5.00;;;1.65;;
72949;SDS011;64868;45.710;9.590;2022-11-27T03:07:30;4.97;;;2.00;;
72949;SDS011;64868;45.710;9.590;2022-11-27T03:10:01;5.25;;;1.80;;
72949;SDS011;64868;45.710;9.590;2022-11-27T03:12:31;4.78;;;1.77;;
72949;SDS011;64868;45.710;9.590;2022-11-27T03:14:57;5.20;;;1.75;;
72949;SDS011;64868;45.710;9.590;2022-11-27T03:19:52;4.43;;;1.55;;
72949;SDS011;64868;45.710;9.590;2022-11-27T03:22:21;4.43;;;1.60;;
72949;SDS011;64868;45.710;9.590;2022-11-27T03:24:47;5.45;;;1.73;;
72949;SDS011;64868;45.710;9.590;2022-11-27T03:27:14;4.50;;;1.50;;
72949;SDS011;64868;45.710;9.590;2022-11-27T03:32:15;4.70;;;1.60;;
72949;SDS011;64868;45.710;9.590;2022-11-27T03:34:40;4.47;;;1.58;;
72949;SDS011;64868;45.710;9.590;2022-11-27T03:37:06;4.25;;;1.35;;
72949;SDS011;64868;45.710;9.590;2022-11-27T03:39:32;4.30;;;1.45;;
72949;SDS011;64868;45.710;9.590;2022-11-27T03:42:08;4.50;;;1.67;;
72949;SDS011;64868;45.710;9.590;2022-11-27T03:47:28;4.13;;;1.50;;
72949;SDS011;64868;45.710;9.590;2022-11-27T03:50:13;5.07;;;1.90;;
72949;SDS011;64868;45.710;9.590;2022-11-27T03:58:51;4.80;;;1.60;;
72949;SDS011;64868;45.710;9.590;2022-11-27T04:01:27;4.25;;;1.30;;
72949;SDS011;64868;45.710;9.590;2022-11-27T04:03:54;4.43;;;1.45;;
72949;SDS011;64868;45.710;9.590;2022-11-27T04:06:20;4.13;;;1.50;;
72949;SDS011;64868;45.710;9.590;2022-11-27T04:08:45;4.05;;;1.52;;
72949;SDS011;64868;45.710;9.590;2022-11-27T04:11:11;4.57;;;1.40;;
72949;SDS011;64868;45.710;9.590;2022-11-27T04:13:37;3.78;;;1.42;;
72949;SDS011;64868;45.710;9.590;2022-11-27T04:16:03;4.30;;;1.50;;
72949;SDS011;64868;45.710;9.590;2022-11-27T04:18:29;4.43;;;1.40;;
72949;SDS011;64868;45.710;9.590;2022-11-27T04:20:54;4.70;;;1.55;;
72949;SDS011;64868;45.710;9.590;2022-11-27T04:23:20;6.07;;;1.50;;
72949;SDS011;64868;45.710;9.590;2022-11-27T04:25:46;3.60;;;1.27;;
72949;SDS011;64868;45.710;9.590;2022-11-27T04:28:12;4.80;;;1.48;;
72949;SDS011;64868;45.710;9.590;2022-11-27T04:30:38;3.47;;;1.40;;
72949;SDS011;64868;45.710;9.590;2022-11-27T04:33:03;4.40;;;1.52;;
72949;SDS011;64868;45.710;9.590;2022-11-27T04:35:28;4.53;;;1.67;;
72949;SDS011;64868;45.710;9.590;2022-11-27T04:37:55;4.35;;;1.50;;
72949;SDS011;64868;45.710;9.590;2022-11-27T04:40:21;3.90;;;1.40;;
72949;SDS011;64868;45.710;9.590;2022-11-27T04:42:47;4.30;;;1.48;;
72949;SDS011;64868;45.710;9.590;2022-11-27T04:45:12;4.43;;;1.60;;
72949;SDS011;64868;45.710;9.590;2022-11-27T04:47:38;4.60;;;1.58;;
72949;SDS011;64868;45.710;9.590;2022-11-27T04:50:04;3.83;;;1.40;;
72949;SDS011;64868;45.710;9.590;2022-11-27T04:52:30;4.32;;;1.40;;
72949;SDS011;64868;45.710;9.590;2022-11-27T04:54:56;4.30;;;1.10;;
72949;SDS011;64868;45.710;9.590;2022-11-27T04:57:21;4.10;;;1.40;;
72949;SDS011;64868;45.710;9.590;2022-11-27T04:59:46;4.90;;;1.42;;
72949;SDS011;64868;45.710;9.590;2022-11-27T05:02:12;4.80;;;1.60;;
72949;SDS011;64868;45.710;9.590;2022-11-27T05:04:37;4.30;;;1.42;;
72949;SDS011;64868;45.710;9.590;2022-11-27T05:07:02;4.47;;;1.50;;
72949;SDS011;64868;45.710;9.590;2022-11-27T05:09:28;4.18;;;1.35;;
72949;SDS011;64868;45.710;9.590;2022-11-27T05:11:53;4.82;;;1.77;;
72949;SDS011;64868;45.710;9.590;2022-11-27T05:14:19;3.80;;;1.20;;
72949;SDS011;64868;45.710;9.590;2022-11-27T05:16:47;3.92;;;1.27;;
72949;SDS011;64868;45.710;9.590;2022-11-27T05:19:15;3.90;;;1.30;;
72949;SDS011;64868;45.710;9.590;2022-11-27T05:21:41;4.80;;;1.63;;
72949;SDS011;64868;45.710;9.590;2022-11-27T05:24:08;7.35;;;1.50;;
72949;SDS011;64868;45.710;9.590;2022-11-27T05:26:34;3.78;;;1.27;;
72949;SDS011;64868;45.710;9.590;2022-11-27T05:28:59;3.92;;;1.35;;
72949;SDS011;64868;45.710;9.590;2022-11-27T05:31:25;3.47;;;1.20;;
72949;SDS011;64868;45.710;9.590;2022-11-27T05:33:51;4.45;;;1.35;;
72949;SDS011;64868;45.710;9.590;2022-11-27T05:36:16;5.05;;;1.42;;
72949;SDS011;64868;45.710;9.590;2022-11-27T05:38:41;5.65;;;1.30;;
72949;SDS011;64868;45.710;9.590;2022-11-27T05:41:07;3.70;;;1.20;;
72949;SDS011;64868;45.710;9.590;2022-11-27T05:43:33;3.92;;;1.33;;
72949;SDS011;64868;45.710;9.590;2022-11-27T05:45:58;4.40;;;1.40;;
72949;SDS011;64868;45.710;9.590;2022-11-27T05:48:28;3.60;;;1.15;;
72949;SDS011;64868;45.710;9.590;2022-11-27T05:50:53;3.55;;;1.25;;
72949;SDS011;64868;45.710;9.590;2022-11-27T05:53:18;8.27;;;1.35;;
72949;SDS011;64868;45.710;9.590;2022-11-27T05:55:44;6.50;;;1.38;;
72949;SDS011;64868;45.710;9.590;2022-11-27T05:58:09;7.25;;;1.17;;
72949;SDS011;64868;45.710;9.590;2022-11-27T06:00:34;5.28;;;1.08;;
72949;SDS011;64868;45.710;9.590;2022-11-27T06:03:00;7.30;;;1.55;;
72949;SDS011;64868;45.710;9.590;2022-11-27T06:05:25;6.30;;;1.45;;
72949;SDS011;64868;45.710;9.590;2022-11-27T06:07:50;8.90;;;1.65;;
72949;SDS011;64868;45.710;9.590;2022-11-27T06:10:16;10.38;;;1.50;;
72949;SDS011;64868;45.710;9.590;2022-11-27T06:12:41;8.32;;;1.83;;
72949;SDS011;64868;45.710;9.590;2022-11-27T06:15:06;7.68;;;1.45;;
72949;SDS011;64868;45.710;9.590;2022-11-27T06:17:32;9.73;;;1.40;;
72949;SDS011;64868;45.710;9.590;2022-11-27T06:19:57;8.13;;;1.50;;
72949;SDS011;64868;45.710;9.590;2022-11-27T06:22:23;6.32;;;1.20;;
72949;SDS011;64868;45.710;9.590;2022-11-27T06:27:54;6.88;;;1.20;;
72949;SDS011;64868;45.710;9.590;2022-11-27T06:30:19;5.20;;;1.17;;
72949;SDS011;64868;45.710;9.590;2022-11-27T06:32:45;5.13;;;0.95;;
72949;SDS011;64868;45.710;9.590;2022-11-27T06:35:10;5.80;;;1.20;;
72949;SDS011;64868;45.710;9.590;2022-11-27T06:37:35;6.35;;;1.27;;
72949;SDS011;64868;45.710;9.590;2022-11-27T06:40:01;4.55;;;1.05;;
72949;SDS011;64868;45.710;9.590;2022-11-27T06:42:28;4.97;;;1.20;;
72949;SDS011;64868;45.710;9.590;2022-11-27T06:44:54;5.30;;;1.30;;
72949;SDS011;64868;45.710;9.590;2022-11-27T06:47:20;5.45;;;1.17;;
72949;SDS011;64868;45.710;9.590;2022-11-27T06:49:45;4.63;;;1.00;;
72949;SDS011;64868;45.710;9.590;2022-11-27T06:52:11;6.63;;;1.13;;
72949;SDS011;64868;45.710;9.590;2022-11-27T06:54:36;4.20;;;1.02;;
72949;SDS011;64868;45.710;9.590;2022-11-27T06:57:01;3.95;;;1.10;;
72949;SDS011;64868;45.710;9.590;2022-11-27T06:59:27;3.15;;;0.82;;
72949;SDS011;64868;45.710;9.590;2022-11-27T07:01:52;5.00;;;1.25;;
72949;SDS011;64868;45.710;9.590;2022-11-27T07:04:18;4.25;;;1.17;;
72949;SDS011;64868;45.710;9.590;2022-11-27T07:06:44;4.45;;;1.08;;
72949;SDS011;64868;45.710;9.590;2022-11-27T07:09:10;5.03;;;1.10;;
72949;SDS011;64868;45.710;9.590;2022-11-27T07:11:35;5.28;;;1.20;;
72949;SDS011;64868;45.710;9.590;2022-11-27T07:14:03;4.20;;;1.00;;
72949;SDS011;64868;45.710;9.590;2022-11-27T07:16:30;5.22;;;1.00;;
72949;SDS011;64868;45.710;9.590;2022-11-27T07:18:59;4.82;;;1.23;;
72949;SDS011;64868;45.710;9.590;2022-11-27T07:21:27;5.55;;;1.15;;
72949;SDS011;64868;45.710;9.590;2022-11-27T07:23:52;6.20;;;1.10;;
72949;SDS011;64868;45.710;9.590;2022-11-27T07:26:21;4.65;;;1.10;;
72949;SDS011;64868;45.710;9.590;2022-11-27T07:28:49;6.18;;;1.15;;
72949;SDS011;64868;45.710;9.590;2022-11-27T07:31:16;4.97;;;1.23;;
72949;SDS011;64868;45.710;9.590;2022-11-27T07:33:43;3.30;;;1.10;;
72949;SDS011;64868;45.710;9.590;2022-11-27T07:38:38;5.07;;;1.17;;
72949;SDS011;64868;45.710;9.590;2022-11-27T07:41:04;4.28;;;0.90;;
72949;SDS011;64868;45.710;9.590;2022-11-27T07:43:31;4.70;;;1.25;;
72949;SDS011;64868;45.710;9.590;2022-11-27T07:45:58;3.70;;;1.02;;
72949;SDS011;64868;45.710;9.590;2022-11-27T07:48:27;4.53;;;1.10;;
72949;SDS011;64868;45.710;9.590;2022-11-27T07:50:52;7.07;;;1.55;;
72949;SDS011;64868;45.710;9.590;2022-11-27T07:53:18;4.85;;;1.38;;
72949;SDS011;64868;45.710;9.590;2022-11-27T07:55:43;5.30;;;1.40;;
72949;SDS011;64868;45.710;9.590;2022-11-27T07:58:09;5.65;;;1.33;;
72949;SDS011;64868;45.710;9.590;2022-11-27T08:00:34;7.07;;;1.30;;
72949;SDS011;64868;45.710;9.590;2022-11-27T08:03:00;4.57;;;1.45;;
72949;SDS011;64868;45.710;9.590;2022-11-27T08:05:26;4.47;;;1.13;;
72949;SDS011;64868;45.710;9.590;2022-11-27T08:07:52;4.22;;;1.20;;
72949;SDS011;64868;45.710;9.590;2022-11-27T08:10:18;4.78;;;1.23;;
72949;SDS011;64868;45.710;9.590;2022-11-27T08:12:44;3.97;;;1.23;;
72949;SDS011;64868;45.710;9.590;2022-11-27T08:15:09;4.88;;;1.20;;
72949;SDS011;64868;45.710;9.590;2022-11-27T08:17:35;5.97;;;1.40;;
72949;SDS011;64868;45.710;9.590;2022-11-27T08:20:01;5.97;;;1.15;;
72949;SDS011;64868;45.710;9.590;2022-11-27T08:22:27;5.85;;;1.23;;
72949;SDS011;64868;45.710;9.590;2022-11-27T08:24:52;5.88;;;1.38;;
72949;SDS011;64868;45.710;9.590;2022-11-27T08:27:18;4.80;;;1.50;;
72949;SDS011;64868;45.710;9.590;2022-11-27T08:29:43;4.47;;;1.50;;
72949;SDS011;64868;45.710;9.590;2022-11-27T08:32:09;5.43;;;1.45;;
72949;SDS011;64868;45.710;9.590;2022-11-27T08:34:34;5.18;;;1.75;;
72949;SDS011;64868;45.710;9.590;2022-11-27T08:37:00;4.13;;;1.27;;
72949;SDS011;64868;45.710;9.590;2022-11-27T08:39:27;4.20;;;1.50;;
72949;SDS011;64868;45.710;9.590;2022-11-27T08:41:52;5.43;;;1.50;;
72949;SDS011;64868;45.710;9.590;2022-11-27T08:44:18;4.43;;;1.65;;
72949;SDS011;64868;45.710;9.590;2022-11-27T08:46:44;6.50;;;2.30;;
72949;SDS011;64868;45.710;9.590;2022-11-27T08:49:09;6.40;;;2.17;;
72949;SDS011;64868;45.710;9.590;2022-11-27T08:51:34;4.97;;;1.48;;
72949;SDS011;64868;45.710;9.590;2022-11-27T08:54:00;8.98;;;1.75;;
72949;SDS011;64868;45.710;9.590;2022-11-27T08:56:25;5.07;;;1.45;;
72949;SDS011;64868;45.710;9.590;2022-11-27T08:58:51;5.05;;;1.63;;
72949;SDS011;64868;45.710;9.590;2022-11-27T09:01:18;4.55;;;1.60;;
72949;SDS011;64868;45.710;9.590;2022-11-27T09:03:46;6.13;;;2.28;;
72949;SDS011;64868;45.710;9.590;2022-11-27T09:06:13;6.18;;;2.00;;
72949;SDS011;64868;45.710;9.590;2022-11-27T09:08:41;6.63;;;2.20;;
72949;SDS011;64868;45.710;9.590;2022-11-27T09:11:07;8.57;;;2.50;;
72949;SDS011;64868;45.710;9.590;2022-11-27T09:13:34;6.80;;;2.80;;
72949;SDS011;64868;45.710;9.590;2022-11-27T09:16:01;6.15;;;1.73;;
72949;SDS011;64868;45.710;9.590;2022-11-27T09:18:28;28.17;;;15.88;;
72949;SDS011;64868;45.710;9.590;2022-11-27T09:20:54;15.98;;;8.80;;
72949;SDS011;64868;45.710;9.590;2022-11-27T09:23:24;46.40;;;25.88;;
72949;SDS011;64868;45.710;9.590;2022-11-27T09:25:49;7.90;;;3.80;;
72949;SDS011;64868;45.710;9.590;2022-11-27T09:28:15;5.68;;;2.22;;
72949;SDS011;64868;45.710;9.590;2022-11-27T09:30:40;5.28;;;1.90;;
72949;SDS011;64868;45.710;9.590;2022-11-27T09:33:05;6.55;;;2.03;;
72949;SDS011;64868;45.710;9.590;2022-11-27T09:35:31;5.30;;;2.00;;
72949;SDS011;64868;45.710;9.590;2022-11-27T09:37:56;5.85;;;2.03;;
72949;SDS011;64868;45.710;9.590;2022-11-27T09:40:21;6.10;;;2.03;;
72949;SDS011;64868;45.710;9.590;2022-11-27T09:42:56;6.18;;;2.22;;
72949;SDS011;64868;45.710;9.590;2022-11-27T09:45:26;8.23;;;2.42;;
72949;SDS011;64868;45.710;9.590;2022-11-27T09:47:54;11.80;;;3.03;;
72949;SDS011;64868;45.710;9.590;2022-11-27T09:50:28;6.68;;;2.60;;
72949;SDS011;64868;45.710;9.590;2022-11-27T09:53:05;6.80;;;2.60;;
72949;SDS011;64868;45.710;9.590;2022-11-27T09:55:45;6.63;;;2.60;;
72949;SDS011;64868;45.710;9.590;2022-11-27T10:00:56;6.25;;;2.65;;
72949;SDS011;64868;45.710;9.590;2022-11-27T10:03:23;7.05;;;2.78;;
72949;SDS011;64868;45.710;9.590;2022-11-27T10:05:59;5.30;;;2.15;;
72949;SDS011;64868;45.710;9.590;2022-11-27T10:11:35;8.57;;;4.07;;
72949;SDS011;64868;45.710;9.590;2022-11-27T10:14:17;6.20;;;2.55;;
72949;SDS011;64868;45.710;9.590;2022-11-27T10:16:58;4.93;;;1.80;;
72949;SDS011;64868;45.710;9.590;2022-11-27T10:19:37;7.22;;;2.05;;
72949;SDS011;64868;45.710;9.590;2022-11-27T10:27:35;5.25;;;1.83;;
72949;SDS011;64868;45.710;9.590;2022-11-27T10:30:12;6.95;;;1.90;;
72949;SDS011;64868;45.710;9.590;2022-11-27T10:32:40;5.38;;;2.00;;
72949;SDS011;64868;45.710;9.590;2022-11-27T10:35:19;5.72;;;2.05;;
72949;SDS011;64868;45.710;9.590;2022-11-27T10:38:10;5.93;;;1.80;;
72949;SDS011;64868;45.710;9.590;2022-11-27T10:40:40;10.38;;;2.35;;
72949;SDS011;64868;45.710;9.590;2022-11-27T10:43:23;5.07;;;2.13;;
72949;SDS011;64868;45.710;9.590;2022-11-27T10:48:32;5.45;;;1.80;;
72949;SDS011;64868;45.710;9.590;2022-11-27T10:50:57;5.05;;;1.95;;
72949;SDS011;64868;45.710;9.590;2022-11-27T10:58:46;6.00;;;2.15;;
72949;SDS011;64868;45.710;9.590;2022-11-27T11:01:19;10.35;;;7.10;;
72949;SDS011;64868;45.710;9.590;2022-11-27T11:03:46;7.28;;;3.75;;
72949;SDS011;64868;45.710;9.590;2022-11-27T11:06:19;7.53;;;4.45;;
72949;SDS011;64868;45.710;9.590;2022-11-27T11:11:47;7.15;;;2.15;;
72949;SDS011;64868;45.710;9.590;2022-11-27T11:14:15;6.82;;;2.33;;
72949;SDS011;64868;45.710;9.590;2022-11-27T11:16:44;16.15;;;6.65;;
72949;SDS011;64868;45.710;9.590;2022-11-27T11:19:24;9.65;;;2.53;;
72949;SDS011;64868;45.710;9.590;2022-11-27T11:21:53;6.90;;;1.98;;
72949;SDS011;64868;45.710;9.590;2022-11-27T11:24:23;5.90;;;2.17;;
72949;SDS011;64868;45.710;9.590;2022-11-27T11:26:53;5.53;;;2.08;;
72949;SDS011;64868;45.710;9.590;2022-11-27T11:31:52;6.25;;;2.35;;
72949;SDS011;64868;45.710;9.590;2022-11-27T11:34:24;5.32;;;2.10;;
72949;SDS011;64868;45.710;9.590;2022-11-27T11:37:03;6.38;;;1.90;;
72949;SDS011;64868;45.710;9.590;2022-11-27T11:39:43;6.22;;;2.10;;
72949;SDS011;64868;45.710;9.590;2022-11-27T11:42:17;6.60;;;2.42;;
72949;SDS011;64868;45.710;9.590;2022-11-27T11:44:49;6.93;;;2.25;;
72949;SDS011;64868;45.710;9.590;2022-11-27T11:47:16;7.70;;;2.35;;
72949;SDS011;64868;45.710;9.590;2022-11-27T11:49:43;12.52;;;2.55;;
72949;SDS011;64868;45.710;9.590;2022-11-27T11:55:26;6.45;;;2.30;;
72949;SDS011;64868;45.710;9.590;2022-11-27T12:00:44;6.07;;;2.20;;
72949;SDS011;64868;45.710;9.590;2022-11-27T12:19:56;6.05;;;2.20;;
72949;SDS011;64868;45.710;9.590;2022-11-27T12:25:40;6.18;;;2.45;;
72949;SDS011;64868;45.710;9.590;2022-11-27T12:28:30;8.85;;;2.53;;
72949;SDS011;64868;45.710;9.590;2022-11-27T12:33:51;6.82;;;2.50;;
72949;SDS011;64868;45.710;9.590;2022-11-27T12:47:44;7.78;;;2.35;;
72949;SDS011;64868;45.710;9.590;2022-11-27T12:50:21;7.53;;;2.53;;
72949;SDS011;64868;45.710;9.590;2022-11-27T12:55:38;8.38;;;2.65;;
72949;SDS011;64868;45.710;9.590;2022-11-27T12:58:09;6.15;;;2.10;;
72949;SDS011;64868;45.710;9.590;2022-11-27T13:00:47;7.50;;;2.22;;
72949;SDS011;64868;45.710;9.590;2022-11-27T13:05:48;6.03;;;2.22;;
72949;SDS011;64868;45.710;9.590;2022-11-27T13:11:19;6.15;;;2.20;;
72949;SDS011;64868;45.710;9.590;2022-11-27T13:13:53;7.75;;;2.70;;
72949;SDS011;64868;45.710;9.590;2022-11-27T13:16:26;7.00;;;2.05;;
72949;SDS011;64868;45.710;9.590;2022-11-27T13:19:04;7.68;;;2.47;;
72949;SDS011;64868;45.710;9.590;2022-11-27T13:21:38;9.05;;;2.25;;
72949;SDS011;64868;45.710;9.590;2022-11-27T13:24:08;6.93;;;2.55;;
72949;SDS011;64868;45.710;9.590;2022-11-27T13:29:30;5.60;;;2.03;;
72949;SDS011;64868;45.710;9.590;2022-11-27T13:32:09;11.65;;;2.53;;
72949;SDS011;64868;45.710;9.590;2022-11-27T13:34:48;6.25;;;2.50;;
72949;SDS011;64868;45.710;9.590;2022-11-27T13:39:50;6.60;;;2.47;;
72949;SDS011;64868;45.710;9.590;2022-11-27T13:42:24;6.40;;;2.90;;
72949;SDS011;64868;45.710;9.590;2022-11-27T13:44:54;7.20;;;2.95;;
72949;SDS011;64868;45.710;9.590;2022-11-27T13:47:22;7.25;;;2.90;;
72949;SDS011;64868;45.710;9.590;2022-11-27T13:49:57;7.10;;;2.67;;
72949;SDS011;64868;45.710;9.590;2022-11-27T13:52:26;6.28;;;2.92;;
72949;SDS011;64868;45.710;9.590;2022-11-27T13:54:52;9.90;;;3.30;;
72949;SDS011;64868;45.710;9.590;2022-11-27T13:57:20;6.18;;;2.47;;
72949;SDS011;64868;45.710;9.590;2022-11-27T14:02:38;7.38;;;2.15;;
72949;SDS011;64868;45.710;9.590;2022-11-27T14:05:05;7.65;;;2.90;;
72949;SDS011;64868;45.710;9.590;2022-11-27T14:07:35;8.30;;;3.40;;
72949;SDS011;64868;45.710;9.590;2022-11-27T14:10:13;7.20;;;3.08;;
72949;SDS011;64868;45.710;9.590;2022-11-27T14:12:41;6.85;;;2.95;;
72949;SDS011;64868;45.710;9.590;2022-11-27T14:17:44;8.95;;;3.00;;
72949;SDS011;64868;45.710;9.590;2022-11-27T14:22:48;7.13;;;2.90;;
72949;SDS011;64868;45.710;9.590;2022-11-27T14:30:34;10.63;;;3.90;;
72949;SDS011;64868;45.710;9.590;2022-11-27T14:33:14;13.75;;;4.95;;
72949;SDS011;64868;45.710;9.590;2022-11-27T14:35:42;20.90;;;9.50;;
72949;SDS011;64868;45.710;9.590;2022-11-27T14:38:12;7.82;;;3.75;;
72949;SDS011;64868;45.710;9.590;2022-11-27T14:40:39;8.80;;;3.50;;
72949;SDS011;64868;45.710;9.590;2022-11-27T14:43:13;8.75;;;3.20;;
72949;SDS011;64868;45.710;9.590;2022-11-27T14:45:47;7.15;;;3.00;;
72949;SDS011;64868;45.710;9.590;2022-11-27T14:48:23;8.10;;;3.55;;
72949;SDS011;64868;45.710;9.590;2022-11-27T14:50:50;9.52;;;3.60;;
72949;SDS011;64868;45.710;9.590;2022-11-27T14:53:19;8.25;;;3.75;;
72949;SDS011;64868;45.710;9.590;2022-11-27T14:55:47;10.20;;;3.80;;
72949;SDS011;64868;45.710;9.590;2022-11-27T14:58:18;8.48;;;3.53;;
72949;SDS011;64868;45.710;9.590;2022-11-27T15:01:00;7.47;;;3.33;;
72949;SDS011;64868;45.710;9.590;2022-11-27T15:03:28;7.32;;;3.38;;
72949;SDS011;64868;45.710;9.590;2022-11-27T15:06:00;6.53;;;2.88;;
72949;SDS011;64868;45.710;9.590;2022-11-27T15:08:30;9.25;;;3.88;;
72949;SDS011;64868;45.710;9.590;2022-11-27T15:10:59;7.93;;;3.78;;
72949;SDS011;64868;45.710;9.590;2022-11-27T15:13:28;8.82;;;3.88;;
72949;SDS011;64868;45.710;9.590;2022-11-27T15:18:23;8.57;;;3.95;;
72949;SDS011;64868;45.710;9.590;2022-11-27T15:20:50;10.50;;;4.72;;
72949;SDS011;64868;45.710;9.590;2022-11-27T15:34:00;17.83;;;6.95;;
72949;SDS011;64868;45.710;9.590;2022-11-27T15:36:39;17.50;;;7.55;;
72949;SDS011;64868;45.710;9.590;2022-11-27T15:42:12;17.75;;;7.28;;
72949;SDS011;64868;45.710;9.590;2022-11-27T15:44:42;16.63;;;6.93;;
72949;SDS011;64868;45.710;9.590;2022-11-27T15:49:46;13.70;;;6.30;;
72949;SDS011;64868;45.710;9.590;2022-11-27T15:52:12;13.30;;;6.13;;
72949;SDS011;64868;45.710;9.590;2022-11-27T15:54:37;11.95;;;4.95;;
72949;SDS011;64868;45.710;9.590;2022-11-27T15:57:03;11.40;;;5.50;;
72949;SDS011;64868;45.710;9.590;2022-11-27T15:59:28;13.07;;;4.88;;
72949;SDS011;64868;45.710;9.590;2022-11-27T16:01:53;13.80;;;5.32;;
72949;SDS011;64868;45.710;9.590;2022-11-27T16:04:21;12.68;;;5.13;;
72949;SDS011;64868;45.710;9.590;2022-11-27T16:06:46;12.75;;;6.20;;
72949;SDS011;64868;45.710;9.590;2022-11-27T16:09:11;15.93;;;6.10;;
72949;SDS011;64868;45.710;9.590;2022-11-27T16:11:37;18.80;;;8.90;;
72949;SDS011;64868;45.710;9.590;2022-11-27T16:14:03;14.85;;;7.70;;
72949;SDS011;64868;45.710;9.590;2022-11-27T16:16:28;23.13;;;11.50;;
72949;SDS011;64868;45.710;9.590;2022-11-27T16:18:55;19.85;;;9.48;;
72949;SDS011;64868;45.710;9.590;2022-11-27T16:21:23;15.68;;;8.38;;
72949;SDS011;64868;45.710;9.590;2022-11-27T16:23:50;15.23;;;7.82;;
72949;SDS011;64868;45.710;9.590;2022-11-27T16:26:15;13.30;;;6.68;;
72949;SDS011;64868;45.710;9.590;2022-11-27T16:28:41;12.32;;;6.05;;
72949;SDS011;64868;45.710;9.590;2022-11-27T16:31:08;10.32;;;5.35;;
72949;SDS011;64868;45.710;9.590;2022-11-27T16:33:35;11.57;;;5.68;;
72949;SDS011;64868;45.710;9.590;2022-11-27T16:36:05;11.25;;;5.97;;
72949;SDS011;64868;45.710;9.590;2022-11-27T16:38:35;17.25;;;6.47;;
72949;SDS011;64868;45.710;9.590;2022-11-27T16:41:01;12.63;;;6.05;;
72949;SDS011;64868;45.710;9.590;2022-11-27T16:43:33;11.13;;;6.13;;
72949;SDS011;64868;45.710;9.590;2022-11-27T16:46:02;12.93;;;5.65;;
72949;SDS011;64868;45.710;9.590;2022-11-27T16:48:32;12.43;;;6.18;;
72949;SDS011;64868;45.710;9.590;2022-11-27T16:51:03;17.38;;;7.15;;
72949;SDS011;64868;45.710;9.590;2022-11-27T16:53:31;14.45;;;7.53;;
72949;SDS011;64868;45.710;9.590;2022-11-27T16:55:57;15.02;;;7.28;;
72949;SDS011;64868;45.710;9.590;2022-11-27T16:58:23;17.90;;;8.23;;
72949;SDS011;64868;45.710;9.590;2022-11-27T17:00:48;15.98;;;8.30;;
72949;SDS011;64868;45.710;9.590;2022-11-27T17:03:14;17.50;;;8.80;;
72949;SDS011;64868;45.710;9.590;2022-11-27T17:05:40;15.70;;;7.72;;
72949;SDS011;64868;45.710;9.590;2022-11-27T17:08:06;18.45;;;9.43;;
72949;SDS011;64868;45.710;9.590;2022-11-27T17:10:31;17.90;;;9.25;;
72949;SDS011;64868;45.710;9.590;2022-11-27T17:12:57;15.15;;;8.80;;
72949;SDS011;64868;45.710;9.590;2022-11-27T17:15:22;17.75;;;8.93;;